createdAt,value
2019-02-08T00:01:34.527Z,3.23
2019-02-08T00:06:35.802Z,3.73
2019-02-08T00:11:37.081Z,2.90
2019-02-08T00:16:38.762Z,3.20
2019-02-08T00:21:40.059Z,2.90
2019-02-08T00:26:41.327Z,2.93
2019-02-08T00:31:42.915Z,2.87
2019-02-08T00:36:44.197Z,2.40
2019-02-08T00:41:45.485Z,3.10
2019-02-08T00:46:46.769Z,2.20
2019-02-08T00:51:48.058Z,2.67
2019-02-08T00:56:49.334Z,2.77
2019-02-08T01:01:50.643Z,2.70
2019-02-08T01:06:52.329Z,2.60
2019-02-08T01:11:53.616Z,2.13
2019-02-08T01:16:54.899Z,2.20
2019-02-08T01:21:56.190Z,2.20
2019-02-08T01:26:57.484Z,2.03
2019-02-08T01:31:58.761Z,2.40
2019-02-08T01:37:00.414Z,2.60
2019-02-08T01:42:01.733Z,3.13
2019-02-08T01:47:03.014Z,2.50
2019-02-08T01:52:04.303Z,2.53
2019-02-08T01:57:05.939Z,2.27
2019-02-08T02:02:07.241Z,2.23
2019-02-08T02:07:08.522Z,2.30
2019-02-08T02:12:09.798Z,2.13
2019-02-08T02:17:11.073Z,2.10
2019-02-08T02:22:12.354Z,2.30
2019-02-08T02:27:14.021Z,2.07
2019-02-08T02:32:15.627Z,3.07
2019-02-08T02:37:16.915Z,2.53
2019-02-08T02:42:18.204Z,2.50
2019-02-08T02:47:19.500Z,2.30
2019-02-08T02:52:20.771Z,2.20
2019-02-08T02:57:22.381Z,2.37
2019-02-08T03:02:23.689Z,2.77
2019-02-08T03:07:24.978Z,2.33
2019-02-08T03:12:26.259Z,2.23
2019-02-08T03:17:27.545Z,2.47
2019-02-08T03:22:29.344Z,2.37
2019-02-08T03:27:50.781Z,2.27
2019-02-08T03:32:52.083Z,2.10
2019-02-08T03:37:53.685Z,2.70
2019-02-08T03:42:55.262Z,2.50
2019-02-08T03:47:56.862Z,1.90
2019-02-08T03:52:58.150Z,2.73
2019-02-08T03:57:59.439Z,2.53
2019-02-08T04:03:00.749Z,2.97
2019-02-08T04:08:02.034Z,2.27
2019-02-08T04:13:03.334Z,2.03
2019-02-08T04:18:04.601Z,2.30
2019-02-08T04:23:05.890Z,1.90
2019-02-08T04:28:07.172Z,3.03
2019-02-08T04:33:08.465Z,2.53
2019-02-08T04:38:09.743Z,2.10
2019-02-08T04:43:11.007Z,2.37
2019-02-08T04:48:12.289Z,2.50
2019-02-08T04:53:13.858Z,2.53
2019-02-08T04:58:15.133Z,2.07
2019-02-08T05:03:16.442Z,2.50
2019-02-08T05:08:17.724Z,1.90
2019-02-08T05:13:19.005Z,2.87
2019-02-08T05:18:20.591Z,2.10
2019-02-08T05:23:22.188Z,2.60
2019-02-08T05:28:23.473Z,1.90
2019-02-08T05:33:24.737Z,2.30
2019-02-08T05:38:26.130Z,1.80
2019-02-08T05:43:27.412Z,5.08
2019-02-08T05:48:28.685Z,2.93
2019-02-08T05:53:29.959Z,3.00
2019-02-08T05:58:31.235Z,2.70
2019-02-08T06:03:32.957Z,3.07
2019-02-08T06:08:34.228Z,2.60
2019-02-08T06:13:35.512Z,2.70
2019-02-08T06:18:36.787Z,2.93
2019-02-08T06:23:38.064Z,3.30
2019-02-08T06:28:39.354Z,3.07
2019-02-08T06:33:40.660Z,2.47
2019-02-08T06:38:41.940Z,2.00
2019-02-08T06:43:43.718Z,2.10
2019-02-08T06:48:45.016Z,2.33
2019-02-08T06:53:46.404Z,2.07
2019-02-08T06:58:52.622Z,2.00
2019-02-08T07:04:04.860Z,2.47
2019-02-08T07:09:09.670Z,2.13
2019-02-08T07:14:28.213Z,2.17
2019-02-08T07:19:37.212Z,2.60
2019-02-08T07:24:49.307Z,2.20
2019-02-08T07:29:55.715Z,2.77
2019-02-08T07:35:15.721Z,1.80
2019-02-08T07:40:38.575Z,2.30
2019-02-08T07:45:47.729Z,2.75
2019-02-08T07:50:50.917Z,2.13
2019-02-08T07:55:54.098Z,2.23
2019-02-08T08:01:03.018Z,2.57
2019-02-08T08:06:12.645Z,2.10
2019-02-08T08:11:15.820Z,2.53
2019-02-08T08:16:35.888Z,2.40
2019-02-08T08:21:43.701Z,2.67
2019-02-08T08:26:49.605Z,3.40
2019-02-08T08:31:52.790Z,2.23
2019-02-08T08:37:03.907Z,1.90
2019-02-08T08:42:18.088Z,1.83
2019-02-08T08:47:29.149Z,2.70
2019-02-08T08:52:34.240Z,2.47
2019-02-08T08:57:39.593Z,2.27
2019-02-08T09:03:21.212Z,3.70
2019-02-08T09:08:45.771Z,5.80
2019-02-08T09:14:14.549Z,2.60
2019-02-08T09:19:56.072Z,1.63
2019-02-08T09:25:13.141Z,1.63
2019-02-08T09:30:41.334Z,1.53
2019-02-08T09:35:58.816Z,2.00
2019-02-08T09:41:23.538Z,2.53
2019-02-08T09:46:46.857Z,2.10
2019-02-08T09:52:18.763Z,1.80
2019-02-08T09:57:36.140Z,1.33
2019-02-08T10:02:56.658Z,3.50
2019-02-08T10:08:14.044Z,1.98
2019-02-08T10:13:37.478Z,1.80
2019-02-08T10:19:02.268Z,1.83
2019-02-08T10:24:08.642Z,1.97
2019-02-08T10:29:46.201Z,1.80
2019-02-08T10:35:11.589Z,1.90
2019-02-08T10:40:32.433Z,1.87
2019-02-08T10:46:01.777Z,2.27
2019-02-08T10:51:12.357Z,1.97
2019-02-08T10:56:32.841Z,1.90
2019-02-08T11:01:42.011Z,1.73
2019-02-08T11:07:06.534Z,1.70
2019-02-08T11:12:45.233Z,1.70
2019-02-08T11:18:05.433Z,1.50
2019-02-08T11:23:07.090Z,2.22
2019-02-08T11:28:08.393Z,1.80
2019-02-08T11:33:09.992Z,1.70
2019-02-08T11:38:12.990Z,1.43
2019-02-08T11:43:14.256Z,1.90
2019-02-08T11:48:15.876Z,1.50
2019-02-08T11:53:17.158Z,1.47
2019-02-08T11:58:18.446Z,1.50
2019-02-08T12:03:19.750Z,1.57
2019-02-08T12:08:21.332Z,1.67
2019-02-08T12:13:22.621Z,1.53
2019-02-08T12:18:24.280Z,1.37
2019-02-08T12:23:26.085Z,1.30
2019-02-08T12:28:27.364Z,1.40
2019-02-08T12:33:28.648Z,1.30
2019-02-08T12:38:29.929Z,2.43
2019-02-08T12:43:31.219Z,2.07
2019-02-08T12:48:32.492Z,1.57
2019-02-08T12:53:33.771Z,1.50
2019-02-08T12:58:35.049Z,2.43
2019-02-08T13:03:36.728Z,1.10
2019-02-08T13:08:38.006Z,1.50
2019-02-08T13:13:39.573Z,1.57
2019-02-08T13:18:40.849Z,1.10
2019-02-08T13:23:42.125Z,1.40
2019-02-08T13:28:45.515Z,1.10
2019-02-08T13:33:47.385Z,1.20
2019-02-08T13:38:48.706Z,1.30
2019-02-08T13:43:49.974Z,1.43
2019-02-08T13:48:51.645Z,1.30
2019-02-08T13:53:52.928Z,1.50
2019-02-08T13:58:54.209Z,1.83
2019-02-08T14:03:55.521Z,1.50
2019-02-08T14:08:56.808Z,1.37
2019-02-08T14:13:58.094Z,1.10
2019-02-08T14:18:59.386Z,2.13
2019-02-08T14:24:00.781Z,1.30
2019-02-08T14:29:02.063Z,1.40
2019-02-08T14:34:03.344Z,1.47
2019-02-08T14:39:07.149Z,1.30
2019-02-08T14:44:08.508Z,1.80
2019-02-08T14:49:09.791Z,1.80
2019-02-08T14:54:11.073Z,1.90
2019-02-08T14:59:14.327Z,1.90
2019-02-08T15:04:16.112Z,1.60
2019-02-08T15:09:17.386Z,1.93
2019-02-08T15:14:19.016Z,2.03
2019-02-08T15:19:21.087Z,1.83
2019-02-08T15:24:22.969Z,1.80
2019-02-08T15:29:24.955Z,2.50
2019-02-08T15:34:27.042Z,2.23
2019-02-08T15:39:28.368Z,2.30
2019-02-08T15:44:32.356Z,2.20
2019-02-08T15:49:33.638Z,2.23
2019-02-08T15:54:35.307Z,2.00
2019-02-08T15:59:36.593Z,7.83
2019-02-08T16:04:37.910Z,3.77
2019-02-08T16:09:39.196Z,2.77
2019-02-08T16:14:40.516Z,3.13
2019-02-08T16:19:41.792Z,3.10
2019-02-08T16:24:43.078Z,3.43
2019-02-08T16:29:44.375Z,9.17
2019-02-08T16:34:45.656Z,4.10
2019-02-08T16:39:47.237Z,3.13
2019-02-08T16:44:48.821Z,4.20
2019-02-08T16:49:50.096Z,2.90
2019-02-08T16:54:51.377Z,5.83
2019-02-08T16:59:53.317Z,7.87
2019-02-08T17:04:55.346Z,5.37
2019-02-08T17:09:57.184Z,4.30
2019-02-08T17:14:58.453Z,4.50
2019-02-08T17:20:00.282Z,4.23
2019-02-08T17:25:01.558Z,4.23
2019-02-08T17:30:06.652Z,5.10
2019-02-08T17:35:10.533Z,4.00
2019-02-08T17:40:25.972Z,2.70
2019-02-08T17:45:27.606Z,4.47
2019-02-08T17:50:28.884Z,7.33
2019-02-08T17:55:30.167Z,9.27
2019-02-08T18:00:41.571Z,9.93
2019-02-08T18:05:42.871Z,9.17
2019-02-08T18:10:44.155Z,5.60
2019-02-08T18:15:45.820Z,8.00
2019-02-08T18:20:50.677Z,9.40
2019-02-08T18:25:51.965Z,8.80
2019-02-08T18:30:53.244Z,9.30
2019-02-08T18:35:54.531Z,7.53
2019-02-08T18:40:56.348Z,6.57
2019-02-08T18:45:58.148Z,9.10
2019-02-08T18:50:59.422Z,4.67
2019-02-08T18:56:01.163Z,5.57
2019-02-08T19:01:02.441Z,5.58
2019-02-08T19:06:03.869Z,4.90
2019-02-08T19:11:05.158Z,5.33
2019-02-08T19:16:06.812Z,7.63
2019-02-08T19:21:08.125Z,13.20
2019-02-08T19:26:10.120Z,5.43
2019-02-08T19:31:11.432Z,6.80
2019-02-08T19:36:13.112Z,8.70
2019-02-08T19:41:14.398Z,19.13
2019-02-08T19:46:15.970Z,6.97
2019-02-08T19:51:17.251Z,8.03
2019-02-08T19:56:18.530Z,8.47
2019-02-08T20:01:19.838Z,7.20
2019-02-08T20:06:21.933Z,8.90
2019-02-08T20:11:23.161Z,9.23
2019-02-08T20:16:24.445Z,7.37
2019-02-08T20:21:27.656Z,8.60
2019-02-08T20:26:48.785Z,7.60
2019-02-08T20:31:50.080Z,5.60
2019-02-08T20:36:51.367Z,4.63
2019-02-08T20:41:53.273Z,3.77
2019-02-08T20:46:54.560Z,4.30
2019-02-08T20:51:55.842Z,2.00
2019-02-08T20:56:58.894Z,1.60
2019-02-08T21:02:00.297Z,1.60
2019-02-08T21:07:01.572Z,1.50
2019-02-08T21:12:03.893Z,1.87
2019-02-08T21:17:05.184Z,1.90
2019-02-08T21:22:06.793Z,1.57
2019-02-08T21:27:08.085Z,1.80
2019-02-08T21:32:09.369Z,1.80
2019-02-08T21:37:10.647Z,1.77
2019-02-08T21:42:11.921Z,1.43
2019-02-08T21:47:13.197Z,1.30
2019-02-08T21:52:14.477Z,2.70
2019-02-08T21:57:15.799Z,1.50
2019-02-08T22:02:17.562Z,1.60
2019-02-08T22:07:18.855Z,1.30
2019-02-08T22:12:20.120Z,1.70
2019-02-08T22:17:21.429Z,1.70
2019-02-08T22:22:23.041Z,1.73
2019-02-08T22:27:24.321Z,2.30
2019-02-08T22:32:25.606Z,2.00
2019-02-08T22:37:26.881Z,2.10
2019-02-08T22:42:28.181Z,3.37
2019-02-08T22:47:29.473Z,2.00
2019-02-08T22:52:30.785Z,1.90
2019-02-08T22:57:32.161Z,2.30
2019-02-08T23:02:35.236Z,1.40
2019-02-08T23:07:36.489Z,1.80
2019-02-08T23:12:37.768Z,1.67
2019-02-08T23:17:39.051Z,1.50
2019-02-08T23:22:40.327Z,1.60
2019-02-08T23:27:41.604Z,1.57
2019-02-08T23:32:42.885Z,1.40
2019-02-08T23:37:44.176Z,1.20
2019-02-08T23:42:45.446Z,1.50
2019-02-08T23:47:46.737Z,1.40
2019-02-08T23:52:48.602Z,1.20
2019-02-08T23:57:49.901Z,1.13
